sensor_id;sensor_type;location;lat;lon;timestamp;P1;durP1;ratioP1;P2;durP2;ratioP2
17955;SDS011;27666;51.498;11.966;2022-07-21T00:01:53;10.10;;;3.97;;
17955;SDS011;27666;51.498;11.966;2022-07-21T00:04:41;7.15;;;3.25;;
17955;SDS011;27666;51.498;11.966;2022-07-21T00:07:28;9.25;;;4.30;;
17955;SDS011;27666;51.498;11.966;2022-07-21T00:10:15;4.75;;;3.63;;
17955;SDS011;27666;51.498;11.966;2022-07-21T00:13:02;12.05;;;4.97;;
17955;SDS011;27666;51.498;11.966;2022-07-21T00:15:49;12.00;;;5.28;;
17955;SDS011;27666;51.498;11.966;2022-07-21T00:18:36;14.63;;;6.75;;
17955;SDS011;27666;51.498;11.966;2022-07-21T00:21:23;16.65;;;8.40;;
17955;SDS011;27666;51.498;11.966;2022-07-21T00:24:10;20.60;;;8.45;;
17955;SDS011;27666;51.498;11.966;2022-07-21T00:26:57;20.15;;;8.77;;
17955;SDS011;27666;51.498;11.966;2022-07-21T00:29:43;26.35;;;11.13;;
17955;SDS011;27666;51.498;11.966;2022-07-21T00:32:29;24.60;;;10.07;;
17955;SDS011;27666;51.498;11.966;2022-07-21T00:35:20;35.80;;;10.45;;
17955;SDS011;27666;51.498;11.966;2022-07-21T00:38:08;27.23;;;10.55;;
17955;SDS011;27666;51.498;11.966;2022-07-21T00:40:54;22.83;;;10.30;;
17955;SDS011;27666;51.498;11.966;2022-07-21T00:43:41;21.42;;;10.73;;
17955;SDS011;27666;51.498;11.966;2022-07-21T00:46:28;23.10;;;10.40;;
17955;SDS011;27666;51.498;11.966;2022-07-21T00:49:15;20.58;;;9.60;;
17955;SDS011;27666;51.498;11.966;2022-07-21T00:52:01;27.25;;;9.30;;
17955;SDS011;27666;51.498;11.966;2022-07-21T00:54:49;20.27;;;8.95;;
17955;SDS011;27666;51.498;11.966;2022-07-21T00:57:36;21.77;;;8.55;;
17955;SDS011;27666;51.498;11.966;2022-07-21T01:00:24;22.75;;;9.15;;
17955;SDS011;27666;51.498;11.966;2022-07-21T01:03:12;20.48;;;8.73;;
17955;SDS011;27666;51.498;11.966;2022-07-21T01:05:59;19.95;;;8.35;;
17955;SDS011;27666;51.498;11.966;2022-07-21T01:08:45;15.07;;;7.82;;
17955;SDS011;27666;51.498;11.966;2022-07-21T01:11:33;22.15;;;8.15;;
17955;SDS011;27666;51.498;11.966;2022-07-21T01:14:20;21.65;;;8.30;;
17955;SDS011;27666;51.498;11.966;2022-07-21T01:17:07;13.18;;;8.02;;
17955;SDS011;27666;51.498;11.966;2022-07-21T01:19:54;12.27;;;7.65;;
17955;SDS011;27666;51.498;11.966;2022-07-21T01:22:42;19.15;;;7.80;;
17955;SDS011;27666;51.498;11.966;2022-07-21T01:25:30;16.17;;;8.43;;
17955;SDS011;27666;51.498;11.966;2022-07-21T01:28:17;10.80;;;8.15;;
17955;SDS011;27666;51.498;11.966;2022-07-21T01:31:04;13.02;;;7.70;;
17955;SDS011;27666;51.498;11.966;2022-07-21T01:33:50;10.98;;;7.05;;
17955;SDS011;27666;51.498;11.966;2022-07-21T01:36:36;17.63;;;7.53;;
17955;SDS011;27666;51.498;11.966;2022-07-21T01:39:25;11.73;;;7.05;;
17955;SDS011;27666;51.498;11.966;2022-07-21T01:42:29;20.00;;;7.63;;
17955;SDS011;27666;51.498;11.966;2022-07-21T01:45:15;14.30;;;6.57;;
17955;SDS011;27666;51.498;11.966;2022-07-21T01:48:02;13.55;;;7.32;;
17955;SDS011;27666;51.498;11.966;2022-07-21T01:50:50;12.35;;;7.32;;
17955;SDS011;27666;51.498;11.966;2022-07-21T01:53:37;13.85;;;7.13;;
17955;SDS011;27666;51.498;11.966;2022-07-21T01:56:25;9.90;;;6.72;;
17955;SDS011;27666;51.498;11.966;2022-07-21T01:59:12;11.30;;;6.90;;
17955;SDS011;27666;51.498;11.966;2022-07-21T02:01:59;12.18;;;7.05;;
17955;SDS011;27666;51.498;11.966;2022-07-21T02:04:45;13.35;;;7.07;;
17955;SDS011;27666;51.498;11.966;2022-07-21T02:07:31;14.32;;;7.28;;
17955;SDS011;27666;51.498;11.966;2022-07-21T02:10:18;13.65;;;7.93;;
17955;SDS011;27666;51.498;11.966;2022-07-21T02:13:05;13.93;;;7.18;;
17955;SDS011;27666;51.498;11.966;2022-07-21T02:15:52;11.00;;;6.97;;
17955;SDS011;27666;51.498;11.966;2022-07-21T02:18:39;14.85;;;7.85;;
17955;SDS011;27666;51.498;11.966;2022-07-21T02:21:25;15.77;;;8.00;;
17955;SDS011;27666;51.498;11.966;2022-07-21T02:24:12;9.80;;;7.55;;
17955;SDS011;27666;51.498;11.966;2022-07-21T02:26:58;10.80;;;8.10;;
17955;SDS011;27666;51.498;11.966;2022-07-21T02:29:46;10.57;;;7.85;;
17955;SDS011;27666;51.498;11.966;2022-07-21T02:32:32;9.02;;;7.47;;
17955;SDS011;27666;51.498;11.966;2022-07-21T02:35:19;17.98;;;8.25;;
17955;SDS011;27666;51.498;11.966;2022-07-21T02:38:06;16.90;;;8.07;;
17955;SDS011;27666;51.498;11.966;2022-07-21T02:40:52;11.77;;;7.78;;
17955;SDS011;27666;51.498;11.966;2022-07-21T02:43:41;20.33;;;9.10;;
17955;SDS011;27666;51.498;11.966;2022-07-21T02:46:29;11.68;;;8.05;;
17955;SDS011;27666;51.498;11.966;2022-07-21T02:49:15;17.30;;;8.52;;
17955;SDS011;27666;51.498;11.966;2022-07-21T02:52:02;12.77;;;8.25;;
17955;SDS011;27666;51.498;11.966;2022-07-21T02:54:50;16.63;;;8.75;;
17955;SDS011;27666;51.498;11.966;2022-07-21T02:57:36;13.48;;;8.30;;
17955;SDS011;27666;51.498;11.966;2022-07-21T03:00:23;15.40;;;8.50;;
17955;SDS011;27666;51.498;11.966;2022-07-21T03:03:11;15.57;;;7.80;;
17955;SDS011;27666;51.498;11.966;2022-07-21T03:05:58;14.23;;;7.53;;
17955;SDS011;27666;51.498;11.966;2022-07-21T03:08:45;10.18;;;7.63;;
17955;SDS011;27666;51.498;11.966;2022-07-21T03:11:31;11.75;;;7.90;;
17955;SDS011;27666;51.498;11.966;2022-07-21T03:14:17;11.80;;;7.15;;
17955;SDS011;27666;51.498;11.966;2022-07-21T03:17:04;9.52;;;7.03;;
17955;SDS011;27666;51.498;11.966;2022-07-21T03:19:52;11.90;;;7.25;;
17955;SDS011;27666;51.498;11.966;2022-07-21T03:22:38;12.63;;;6.93;;
17955;SDS011;27666;51.498;11.966;2022-07-21T03:25:25;8.27;;;6.05;;
17955;SDS011;27666;51.498;11.966;2022-07-21T03:28:11;9.90;;;6.32;;
17955;SDS011;27666;51.498;11.966;2022-07-21T03:30:58;13.73;;;6.85;;
17955;SDS011;27666;51.498;11.966;2022-07-21T03:33:44;10.23;;;5.93;;
17955;SDS011;27666;51.498;11.966;2022-07-21T03:36:32;11.93;;;6.20;;
17955;SDS011;27666;51.498;11.966;2022-07-21T03:39:19;11.38;;;6.05;;
17955;SDS011;27666;51.498;11.966;2022-07-21T03:42:05;10.05;;;5.50;;
17955;SDS011;27666;51.498;11.966;2022-07-21T03:44:51;11.90;;;5.30;;
17955;SDS011;27666;51.498;11.966;2022-07-21T03:47:38;10.82;;;5.60;;
17955;SDS011;27666;51.498;11.966;2022-07-21T03:50:25;12.57;;;5.28;;
17955;SDS011;27666;51.498;11.966;2022-07-21T03:53:13;9.38;;;5.18;;
17955;SDS011;27666;51.498;11.966;2022-07-21T03:55:59;10.95;;;5.25;;
17955;SDS011;27666;51.498;11.966;2022-07-21T03:58:46;9.43;;;4.95;;
17955;SDS011;27666;51.498;11.966;2022-07-21T04:01:33;11.13;;;5.15;;
17955;SDS011;27666;51.498;11.966;2022-07-21T04:04:19;9.48;;;5.63;;
17955;SDS011;27666;51.498;11.966;2022-07-21T04:07:06;8.38;;;5.28;;
17955;SDS011;27666;51.498;11.966;2022-07-21T04:09:54;7.40;;;5.22;;
17955;SDS011;27666;51.498;11.966;2022-07-21T04:12:40;8.07;;;5.03;;
17955;SDS011;27666;51.498;11.966;2022-07-21T04:15:27;6.45;;;5.07;;
17955;SDS011;27666;51.498;11.966;2022-07-21T04:18:14;6.55;;;5.07;;
17955;SDS011;27666;51.498;11.966;2022-07-21T04:21:01;7.22;;;5.30;;
17955;SDS011;27666;51.498;11.966;2022-07-21T04:23:47;5.25;;;4.75;;
17955;SDS011;27666;51.498;11.966;2022-07-21T04:26:35;6.45;;;4.85;;
17955;SDS011;27666;51.498;11.966;2022-07-21T04:29:22;7.70;;;5.10;;
17955;SDS011;27666;51.498;11.966;2022-07-21T04:32:08;8.18;;;4.43;;
17955;SDS011;27666;51.498;11.966;2022-07-21T04:34:55;6.13;;;4.70;;
17955;SDS011;27666;51.498;11.966;2022-07-21T04:37:42;5.32;;;4.72;;
17955;SDS011;27666;51.498;11.966;2022-07-21T04:40:28;8.77;;;5.15;;
17955;SDS011;27666;51.498;11.966;2022-07-21T04:43:17;12.93;;;4.88;;
17955;SDS011;27666;51.498;11.966;2022-07-21T04:46:04;5.57;;;4.10;;
17955;SDS011;27666;51.498;11.966;2022-07-21T04:48:59;5.43;;;4.38;;
17955;SDS011;27666;51.498;11.966;2022-07-21T04:51:45;8.68;;;4.80;;
17955;SDS011;27666;51.498;11.966;2022-07-21T04:54:32;4.90;;;4.40;;
17955;SDS011;27666;51.498;11.966;2022-07-21T04:57:18;5.68;;;4.50;;
17955;SDS011;27666;51.498;11.966;2022-07-21T05:00:07;7.13;;;4.82;;
17955;SDS011;27666;51.498;11.966;2022-07-21T05:02:55;5.60;;;4.88;;
17955;SDS011;27666;51.498;11.966;2022-07-21T05:05:42;6.22;;;4.20;;
17955;SDS011;27666;51.498;11.966;2022-07-21T05:08:28;13.55;;;4.80;;
17955;SDS011;27666;51.498;11.966;2022-07-21T05:11:15;7.97;;;4.90;;
17955;SDS011;27666;51.498;11.966;2022-07-21T05:14:01;6.13;;;3.95;;
17955;SDS011;27666;51.498;11.966;2022-07-21T05:16:55;7.32;;;4.75;;
17955;SDS011;27666;51.498;11.966;2022-07-21T05:19:41;5.75;;;4.10;;
17955;SDS011;27666;51.498;11.966;2022-07-21T05:22:30;8.80;;;4.30;;
17955;SDS011;27666;51.498;11.966;2022-07-21T05:25:16;7.72;;;4.25;;
17955;SDS011;27666;51.498;11.966;2022-07-21T05:28:03;7.00;;;3.88;;
17955;SDS011;27666;51.498;11.966;2022-07-21T05:30:51;6.55;;;4.50;;
17955;SDS011;27666;51.498;11.966;2022-07-21T05:33:39;7.75;;;4.35;;
17955;SDS011;27666;51.498;11.966;2022-07-21T05:36:25;9.23;;;4.72;;
17955;SDS011;27666;51.498;11.966;2022-07-21T05:39:11;5.75;;;4.22;;
17955;SDS011;27666;51.498;11.966;2022-07-21T05:41:58;7.28;;;4.35;;
17955;SDS011;27666;51.498;11.966;2022-07-21T05:44:44;7.13;;;4.20;;
17955;SDS011;27666;51.498;11.966;2022-07-21T05:47:31;6.80;;;4.20;;
17955;SDS011;27666;51.498;11.966;2022-07-21T05:50:19;4.88;;;4.40;;
17955;SDS011;27666;51.498;11.966;2022-07-21T05:53:05;9.73;;;4.13;;
17955;SDS011;27666;51.498;11.966;2022-07-21T05:55:52;8.40;;;4.60;;
17955;SDS011;27666;51.498;11.966;2022-07-21T05:58:39;4.85;;;3.78;;
17955;SDS011;27666;51.498;11.966;2022-07-21T06:01:25;6.35;;;3.60;;
17955;SDS011;27666;51.498;11.966;2022-07-21T06:04:12;5.82;;;3.95;;
17955;SDS011;27666;51.498;11.966;2022-07-21T06:07:01;5.15;;;4.38;;
17955;SDS011;27666;51.498;11.966;2022-07-21T06:09:47;7.35;;;3.60;;
17955;SDS011;27666;51.498;11.966;2022-07-21T06:12:33;9.85;;;3.70;;
17955;SDS011;27666;51.498;11.966;2022-07-21T06:15:20;6.47;;;3.90;;
17955;SDS011;27666;51.498;11.966;2022-07-21T06:18:07;7.55;;;4.05;;
17955;SDS011;27666;51.498;11.966;2022-07-21T06:20:57;7.93;;;4.05;;
17955;SDS011;27666;51.498;11.966;2022-07-21T06:23:45;5.75;;;4.03;;
17955;SDS011;27666;51.498;11.966;2022-07-21T06:26:32;5.32;;;4.25;;
17955;SDS011;27666;51.498;11.966;2022-07-21T06:29:19;7.00;;;3.88;;
17955;SDS011;27666;51.498;11.966;2022-07-21T06:32:06;5.72;;;3.85;;
17955;SDS011;27666;51.498;11.966;2022-07-21T06:34:52;5.63;;;4.20;;
17955;SDS011;27666;51.498;11.966;2022-07-21T06:37:39;5.07;;;3.95;;
17955;SDS011;27666;51.498;11.966;2022-07-21T06:40:31;8.27;;;3.80;;
17955;SDS011;27666;51.498;11.966;2022-07-21T06:43:18;4.68;;;4.13;;
17955;SDS011;27666;51.498;11.966;2022-07-21T06:46:13;5.85;;;4.18;;
17955;SDS011;27666;51.498;11.966;2022-07-21T06:49:00;5.20;;;3.92;;
17955;SDS011;27666;51.498;11.966;2022-07-21T06:51:47;5.45;;;4.78;;
17955;SDS011;27666;51.498;11.966;2022-07-21T06:54:34;5.00;;;4.30;;
17955;SDS011;27666;51.498;11.966;2022-07-21T06:57:22;5.28;;;4.25;;
17955;SDS011;27666;51.498;11.966;2022-07-21T07:00:10;7.57;;;4.40;;
17955;SDS011;27666;51.498;11.966;2022-07-21T07:02:57;5.45;;;4.07;;
17955;SDS011;27666;51.498;11.966;2022-07-21T07:05:45;7.32;;;4.32;;
17955;SDS011;27666;51.498;11.966;2022-07-21T07:08:32;6.30;;;4.43;;
17955;SDS011;27666;51.498;11.966;2022-07-21T07:11:27;5.50;;;4.20;;
17955;SDS011;27666;51.498;11.966;2022-07-21T07:14:15;5.32;;;4.28;;
17955;SDS011;27666;51.498;11.966;2022-07-21T07:17:03;6.28;;;4.38;;
17955;SDS011;27666;51.498;11.966;2022-07-21T07:19:50;10.23;;;4.75;;
17955;SDS011;27666;51.498;11.966;2022-07-21T07:22:36;11.55;;;4.78;;
17955;SDS011;27666;51.498;11.966;2022-07-21T07:25:23;5.25;;;4.68;;
17955;SDS011;27666;51.498;11.966;2022-07-21T07:28:15;7.97;;;4.90;;
17955;SDS011;27666;51.498;11.966;2022-07-21T07:31:03;10.23;;;4.82;;
17955;SDS011;27666;51.498;11.966;2022-07-21T07:33:50;9.40;;;5.72;;
17955;SDS011;27666;51.498;11.966;2022-07-21T07:36:37;12.98;;;9.25;;
17955;SDS011;27666;51.498;11.966;2022-07-21T07:39:28;20.75;;;13.60;;
17955;SDS011;27666;51.498;11.966;2022-07-21T07:42:15;12.63;;;8.93;;
17955;SDS011;27666;51.498;11.966;2022-07-21T07:45:02;21.98;;;14.57;;
17955;SDS011;27666;51.498;11.966;2022-07-21T07:47:51;7.75;;;5.72;;
17955;SDS011;27666;51.498;11.966;2022-07-21T07:50:38;13.63;;;6.43;;
17955;SDS011;27666;51.498;11.966;2022-07-21T07:53:24;7.35;;;5.80;;
17955;SDS011;27666;51.498;11.966;2022-07-21T07:56:11;11.50;;;5.70;;
17955;SDS011;27666;51.498;11.966;2022-07-21T07:58:57;14.02;;;6.82;;
17955;SDS011;27666;51.498;11.966;2022-07-21T08:01:44;10.55;;;6.25;;
17955;SDS011;27666;51.498;11.966;2022-07-21T08:04:32;6.57;;;5.72;;
17955;SDS011;27666;51.498;11.966;2022-07-21T08:07:20;8.43;;;6.15;;
17955;SDS011;27666;51.498;11.966;2022-07-21T08:10:06;10.90;;;6.10;;
17955;SDS011;27666;51.498;11.966;2022-07-21T08:13:14;13.05;;;5.65;;
17955;SDS011;27666;51.498;11.966;2022-07-21T08:16:02;7.43;;;5.28;;
17955;SDS011;27666;51.498;11.966;2022-07-21T08:18:49;6.65;;;5.50;;
17955;SDS011;27666;51.498;11.966;2022-07-21T08:21:37;7.68;;;6.05;;
17955;SDS011;27666;51.498;11.966;2022-07-21T08:24:44;16.85;;;6.00;;
17955;SDS011;27666;51.498;11.966;2022-07-21T08:27:30;7.43;;;5.65;;
17955;SDS011;27666;51.498;11.966;2022-07-21T08:30:16;7.78;;;5.28;;
17955;SDS011;27666;51.498;11.966;2022-07-21T08:33:07;7.22;;;5.55;;
17955;SDS011;27666;51.498;11.966;2022-07-21T08:35:53;8.10;;;5.63;;
17955;SDS011;27666;51.498;11.966;2022-07-21T08:38:41;7.45;;;5.63;;
17955;SDS011;27666;51.498;11.966;2022-07-21T08:41:27;10.18;;;5.95;;
17955;SDS011;27666;51.498;11.966;2022-07-21T08:44:14;8.15;;;5.85;;
17955;SDS011;27666;51.498;11.966;2022-07-21T08:47:00;14.32;;;7.30;;
17955;SDS011;27666;51.498;11.966;2022-07-21T08:49:47;10.88;;;6.93;;
17955;SDS011;27666;51.498;11.966;2022-07-21T08:52:34;9.82;;;6.35;;
17955;SDS011;27666;51.498;11.966;2022-07-21T08:55:22;10.80;;;6.30;;
17955;SDS011;27666;51.498;11.966;2022-07-21T08:58:09;10.82;;;6.80;;
17955;SDS011;27666;51.498;11.966;2022-07-21T09:00:57;10.98;;;6.82;;
17955;SDS011;27666;51.498;11.966;2022-07-21T09:03:43;10.93;;;6.82;;
17955;SDS011;27666;51.498;11.966;2022-07-21T09:06:31;12.38;;;6.90;;
17955;SDS011;27666;51.498;11.966;2022-07-21T09:09:34;9.95;;;7.07;;
17955;SDS011;27666;51.498;11.966;2022-07-21T09:12:22;11.70;;;7.25;;
17955;SDS011;27666;51.498;11.966;2022-07-21T09:15:11;14.02;;;7.35;;
17955;SDS011;27666;51.498;11.966;2022-07-21T09:18:06;10.57;;;7.43;;
17955;SDS011;27666;51.498;11.966;2022-07-21T09:20:56;10.13;;;7.38;;
17955;SDS011;27666;51.498;11.966;2022-07-21T09:23:43;11.32;;;7.32;;
17955;SDS011;27666;51.498;11.966;2022-07-21T09:26:30;9.60;;;7.53;;
17955;SDS011;27666;51.498;11.966;2022-07-21T09:29:18;14.43;;;7.82;;
17955;SDS011;27666;51.498;11.966;2022-07-21T09:32:17;11.70;;;7.38;;
17955;SDS011;27666;51.498;11.966;2022-07-21T09:35:10;12.75;;;6.90;;
17955;SDS011;27666;51.498;11.966;2022-07-21T09:37:58;14.05;;;7.68;;
17955;SDS011;27666;51.498;11.966;2022-07-21T09:41:03;10.07;;;7.15;;
17955;SDS011;27666;51.498;11.966;2022-07-21T09:43:51;10.70;;;7.32;;
17955;SDS011;27666;51.498;11.966;2022-07-21T09:46:40;14.73;;;8.05;;
17955;SDS011;27666;51.498;11.966;2022-07-21T09:49:30;18.42;;;9.10;;
17955;SDS011;27666;51.498;11.966;2022-07-21T09:52:37;12.57;;;8.15;;
17955;SDS011;27666;51.498;11.966;2022-07-21T09:55:25;14.00;;;7.28;;
17955;SDS011;27666;51.498;11.966;2022-07-21T09:58:13;7.85;;;6.47;;
17955;SDS011;27666;51.498;11.966;2022-07-21T10:01:00;10.30;;;7.68;;
17955;SDS011;27666;51.498;11.966;2022-07-21T10:03:49;12.48;;;7.93;;
17955;SDS011;27666;51.498;11.966;2022-07-21T10:06:37;9.07;;;6.90;;
17955;SDS011;27666;51.498;11.966;2022-07-21T10:09:24;7.82;;;7.03;;
17955;SDS011;27666;51.498;11.966;2022-07-21T10:12:12;10.23;;;7.15;;
17955;SDS011;27666;51.498;11.966;2022-07-21T10:14:59;12.90;;;7.53;;
17955;SDS011;27666;51.498;11.966;2022-07-21T10:17:46;10.98;;;7.82;;
17955;SDS011;27666;51.498;11.966;2022-07-21T10:20:38;11.30;;;7.63;;
17955;SDS011;27666;51.498;11.966;2022-07-21T10:23:34;10.85;;;7.88;;
17955;SDS011;27666;51.498;11.966;2022-07-21T10:26:22;10.38;;;7.50;;
17955;SDS011;27666;51.498;11.966;2022-07-21T10:29:09;8.57;;;6.93;;
17955;SDS011;27666;51.498;11.966;2022-07-21T10:32:00;8.48;;;7.03;;
17955;SDS011;27666;51.498;11.966;2022-07-21T10:34:56;8.15;;;6.70;;
17955;SDS011;27666;51.498;11.966;2022-07-21T10:37:46;11.52;;;7.45;;
17955;SDS011;27666;51.498;11.966;2022-07-21T10:40:34;9.45;;;7.53;;
17955;SDS011;27666;51.498;11.966;2022-07-21T10:43:40;8.07;;;7.25;;
17955;SDS011;27666;51.498;11.966;2022-07-21T10:46:32;9.15;;;7.45;;
17955;SDS011;27666;51.498;11.966;2022-07-21T10:49:40;11.15;;;8.13;;
17955;SDS011;27666;51.498;11.966;2022-07-21T10:55:56;9.43;;;7.28;;
17955;SDS011;27666;51.498;11.966;2022-07-21T10:58:42;8.30;;;7.50;;
17955;SDS011;27666;51.498;11.966;2022-07-21T11:01:30;9.77;;;7.82;;
17955;SDS011;27666;51.498;11.966;2022-07-21T11:04:17;13.60;;;8.25;;
17955;SDS011;27666;51.498;11.966;2022-07-21T11:07:06;13.40;;;8.20;;
17955;SDS011;27666;51.498;11.966;2022-07-21T11:13:03;9.63;;;8.35;;
17955;SDS011;27666;51.498;11.966;2022-07-21T11:15:57;11.50;;;8.00;;
17955;SDS011;27666;51.498;11.966;2022-07-21T11:18:44;9.80;;;7.88;;
17955;SDS011;27666;51.498;11.966;2022-07-21T11:21:31;11.43;;;8.48;;
17955;SDS011;27666;51.498;11.966;2022-07-21T11:24:18;9.32;;;8.43;;
17955;SDS011;27666;51.498;11.966;2022-07-21T11:27:06;9.43;;;8.50;;
17955;SDS011;27666;51.498;11.966;2022-07-21T11:29:56;10.70;;;8.52;;
17955;SDS011;27666;51.498;11.966;2022-07-21T11:32:45;11.00;;;8.25;;
17955;SDS011;27666;51.498;11.966;2022-07-21T11:35:34;10.05;;;8.48;;
17955;SDS011;27666;51.498;11.966;2022-07-21T11:38:23;11.65;;;8.20;;
17955;SDS011;27666;51.498;11.966;2022-07-21T11:41:13;16.08;;;8.43;;
17955;SDS011;27666;51.498;11.966;2022-07-21T11:44:01;11.00;;;8.23;;
17955;SDS011;27666;51.498;11.966;2022-07-21T11:46:51;10.52;;;8.27;;
17955;SDS011;27666;51.498;11.966;2022-07-21T11:49:38;10.55;;;9.20;;
17955;SDS011;27666;51.498;11.966;2022-07-21T11:52:27;13.27;;;9.18;;
17955;SDS011;27666;51.498;11.966;2022-07-21T11:55:15;13.35;;;8.70;;
17955;SDS011;27666;51.498;11.966;2022-07-21T11:58:02;16.48;;;9.20;;
17955;SDS011;27666;51.498;11.966;2022-07-21T12:00:48;11.88;;;8.95;;
17955;SDS011;27666;51.498;11.966;2022-07-21T12:03:50;14.55;;;8.07;;
17955;SDS011;27666;51.498;11.966;2022-07-21T12:06:37;12.70;;;7.97;;
17955;SDS011;27666;51.498;11.966;2022-07-21T12:09:24;11.95;;;8.77;;
17955;SDS011;27666;51.498;11.966;2022-07-21T12:12:11;14.60;;;9.48;;
17955;SDS011;27666;51.498;11.966;2022-07-21T12:15:08;13.32;;;8.90;;
17955;SDS011;27666;51.498;11.966;2022-07-21T12:17:58;14.70;;;10.02;;
17955;SDS011;27666;51.498;11.966;2022-07-21T12:20:47;22.90;;;10.68;;
17955;SDS011;27666;51.498;11.966;2022-07-21T12:23:38;16.08;;;9.52;;
17955;SDS011;27666;51.498;11.966;2022-07-21T12:26:24;16.85;;;9.60;;
17955;SDS011;27666;51.498;11.966;2022-07-21T12:29:10;13.98;;;10.20;;
17955;SDS011;27666;51.498;11.966;2022-07-21T12:32:10;51.38;;;32.95;;
17955;SDS011;27666;51.498;11.966;2022-07-21T12:34:57;16.52;;;12.85;;
17955;SDS011;27666;51.498;11.966;2022-07-21T12:38:06;10.27;;;9.10;;
17955;SDS011;27666;51.498;11.966;2022-07-21T12:40:56;10.90;;;9.00;;
17955;SDS011;27666;51.498;11.966;2022-07-21T12:44:03;12.82;;;9.77;;
17955;SDS011;27666;51.498;11.966;2022-07-21T12:46:50;13.32;;;10.18;;
17955;SDS011;27666;51.498;11.966;2022-07-21T12:49:50;15.57;;;11.63;;
17955;SDS011;27666;51.498;11.966;2022-07-21T12:52:56;12.35;;;9.10;;
17955;SDS011;27666;51.498;11.966;2022-07-21T12:55:44;11.65;;;8.82;;
17955;SDS011;27666;51.498;11.966;2022-07-21T12:58:31;10.68;;;9.13;;
17955;SDS011;27666;51.498;11.966;2022-07-21T13:01:18;12.95;;;8.13;;
17955;SDS011;27666;51.498;11.966;2022-07-21T13:04:08;8.75;;;7.10;;
17955;SDS011;27666;51.498;11.966;2022-07-21T13:06:55;10.10;;;6.35;;
17955;SDS011;27666;51.498;11.966;2022-07-21T13:09:42;8.52;;;6.32;;
17955;SDS011;27666;51.498;11.966;2022-07-21T13:12:31;8.73;;;6.28;;
17955;SDS011;27666;51.498;11.966;2022-07-21T13:15:17;15.93;;;6.90;;
17955;SDS011;27666;51.498;11.966;2022-07-21T13:18:04;9.52;;;6.50;;
17955;SDS011;27666;51.498;11.966;2022-07-21T13:20:51;11.27;;;8.52;;
17955;SDS011;27666;51.498;11.966;2022-07-21T13:23:38;11.38;;;5.68;;
17955;SDS011;27666;51.498;11.966;2022-07-21T13:26:24;5.93;;;5.28;;
17955;SDS011;27666;51.498;11.966;2022-07-21T13:29:12;9.10;;;5.30;;
17955;SDS011;27666;51.498;11.966;2022-07-21T13:32:00;9.88;;;5.60;;
17955;SDS011;27666;51.498;11.966;2022-07-21T13:34:47;7.90;;;5.22;;
17955;SDS011;27666;51.498;11.966;2022-07-21T13:37:55;6.50;;;5.50;;
17955;SDS011;27666;51.498;11.966;2022-07-21T13:40:42;6.53;;;4.82;;
17955;SDS011;27666;51.498;11.966;2022-07-21T13:43:49;8.38;;;5.38;;
17955;SDS011;27666;51.498;11.966;2022-07-21T13:46:38;5.57;;;5.05;;
17955;SDS011;27666;51.498;11.966;2022-07-21T13:49:26;5.18;;;4.47;;
17955;SDS011;27666;51.498;11.966;2022-07-21T13:52:12;7.85;;;4.60;;
17955;SDS011;27666;51.498;11.966;2022-07-21T13:54:59;6.53;;;4.60;;
17955;SDS011;27666;51.498;11.966;2022-07-21T13:57:46;6.57;;;4.22;;
17955;SDS011;27666;51.498;11.966;2022-07-21T14:00:33;5.53;;;4.05;;
17955;SDS011;27666;51.498;11.966;2022-07-21T14:03:28;4.13;;;3.63;;
17955;SDS011;27666;51.498;11.966;2022-07-21T14:06:15;6.90;;;3.90;;
17955;SDS011;27666;51.498;11.966;2022-07-21T14:09:03;6.45;;;4.68;;
17955;SDS011;27666;51.498;11.966;2022-07-21T14:11:49;4.40;;;3.50;;
17955;SDS011;27666;51.498;11.966;2022-07-21T14:14:37;7.97;;;5.00;;
17955;SDS011;27666;51.498;11.966;2022-07-21T14:17:24;6.55;;;3.85;;
17955;SDS011;27666;51.498;11.966;2022-07-21T14:20:11;4.50;;;3.55;;
17955;SDS011;27666;51.498;11.966;2022-07-21T14:22:58;6.68;;;3.85;;
17955;SDS011;27666;51.498;11.966;2022-07-21T14:25:45;4.20;;;3.75;;
17955;SDS011;27666;51.498;11.966;2022-07-21T14:28:31;5.97;;;3.55;;
17955;SDS011;27666;51.498;11.966;2022-07-21T14:31:18;4.90;;;3.78;;
17955;SDS011;27666;51.498;11.966;2022-07-21T14:34:04;9.10;;;3.83;;
17955;SDS011;27666;51.498;11.966;2022-07-21T14:36:52;10.57;;;5.97;;
17955;SDS011;27666;51.498;11.966;2022-07-21T14:39:48;9.57;;;4.05;;
17955;SDS011;27666;51.498;11.966;2022-07-21T14:42:39;8.65;;;6.18;;
17955;SDS011;27666;51.498;11.966;2022-07-21T14:45:26;4.28;;;3.72;;
17955;SDS011;27666;51.498;11.966;2022-07-21T14:48:13;5.65;;;3.70;;
17955;SDS011;27666;51.498;11.966;2022-07-21T14:51:00;6.68;;;4.18;;
17955;SDS011;27666;51.498;11.966;2022-07-21T14:53:48;8.70;;;4.65;;
17955;SDS011;27666;51.498;11.966;2022-07-21T14:56:35;8.57;;;4.80;;
17955;SDS011;27666;51.498;11.966;2022-07-21T14:59:41;4.60;;;4.13;;
17955;SDS011;27666;51.498;11.966;2022-07-21T15:02:28;10.80;;;3.58;;
17955;SDS011;27666;51.498;11.966;2022-07-21T15:05:15;4.90;;;4.07;;
17955;SDS011;27666;51.498;11.966;2022-07-21T15:08:01;5.38;;;4.47;;
17955;SDS011;27666;51.498;11.966;2022-07-21T15:10:58;4.60;;;4.10;;
17955;SDS011;27666;51.498;11.966;2022-07-21T15:13:44;4.70;;;4.22;;
17955;SDS011;27666;51.498;11.966;2022-07-21T15:16:31;8.27;;;4.30;;
17955;SDS011;27666;51.498;11.966;2022-07-21T15:19:18;7.18;;;4.30;;
17955;SDS011;27666;51.498;11.966;2022-07-21T15:22:05;4.32;;;3.85;;
17955;SDS011;27666;51.498;11.966;2022-07-21T15:24:52;3.80;;;3.40;;
17955;SDS011;27666;51.498;11.966;2022-07-21T15:27:41;6.07;;;4.72;;
17955;SDS011;27666;51.498;11.966;2022-07-21T15:30:28;5.88;;;3.67;;
17955;SDS011;27666;51.498;11.966;2022-07-21T15:33:15;7.97;;;3.58;;
17955;SDS011;27666;51.498;11.966;2022-07-21T15:36:01;7.57;;;3.60;;
17955;SDS011;27666;51.498;11.966;2022-07-21T15:38:48;4.93;;;3.60;;
17955;SDS011;27666;51.498;11.966;2022-07-21T15:41:35;4.22;;;3.50;;
17955;SDS011;27666;51.498;11.966;2022-07-21T15:44:41;7.93;;;3.28;;
17955;SDS011;27666;51.498;11.966;2022-07-21T15:47:27;3.60;;;3.25;;
17955;SDS011;27666;51.498;11.966;2022-07-21T15:50:14;5.63;;;3.45;;
17955;SDS011;27666;51.498;11.966;2022-07-21T15:53:01;3.97;;;2.92;;
17955;SDS011;27666;51.498;11.966;2022-07-21T15:55:47;5.60;;;3.05;;
17955;SDS011;27666;51.498;11.966;2022-07-21T15:58:33;3.15;;;2.90;;
17955;SDS011;27666;51.498;11.966;2022-07-21T16:01:21;6.07;;;3.28;;
17955;SDS011;27666;51.498;11.966;2022-07-21T16:04:08;5.03;;;3.00;;
17955;SDS011;27666;51.498;11.966;2022-07-21T16:06:54;4.35;;;3.15;;
17955;SDS011;27666;51.498;11.966;2022-07-21T16:09:42;4.63;;;3.38;;
17955;SDS011;27666;51.498;11.966;2022-07-21T16:12:29;5.63;;;3.00;;
17955;SDS011;27666;51.498;11.966;2022-07-21T16:15:16;6.50;;;3.25;;
17955;SDS011;27666;51.498;11.966;2022-07-21T16:18:04;7.78;;;3.67;;
17955;SDS011;27666;51.498;11.966;2022-07-21T16:20:52;8.40;;;3.45;;
17955;SDS011;27666;51.498;11.966;2022-07-21T16:23:38;5.43;;;3.38;;
17955;SDS011;27666;51.498;11.966;2022-07-21T16:26:25;4.35;;;3.22;;
17955;SDS011;27666;51.498;11.966;2022-07-21T16:29:12;6.40;;;3.63;;
17955;SDS011;27666;51.498;11.966;2022-07-21T16:31:58;6.82;;;3.42;;
17955;SDS011;27666;51.498;11.966;2022-07-21T16:34:47;5.20;;;3.38;;
17955;SDS011;27666;51.498;11.966;2022-07-21T16:37:33;3.53;;;2.83;;
17955;SDS011;27666;51.498;11.966;2022-07-21T16:40:21;4.32;;;3.40;;